sensor_id;sensor_type;location;lat;lon;timestamp;temperature;humidity
32296;DHT22;18781;51.550;5.418;2022-12-26T00:01:56;13.30;79.00
32296;DHT22;18781;51.550;5.418;2022-12-26T00:04:24;13.30;79.00
32296;DHT22;18781;51.550;5.418;2022-12-26T00:06:50;13.30;79.10
32296;DHT22;18781;51.550;5.418;2022-12-26T00:09:15;13.30;79.00
32296;DHT22;18781;51.550;5.418;2022-12-26T00:11:42;13.20;79.00
32296;DHT22;18781;51.550;5.418;2022-12-26T00:14:10;13.30;79.00
32296;DHT22;18781;51.550;5.418;2022-12-26T00:16:38;13.30;79.00
32296;DHT22;18781;51.550;5.418;2022-12-26T00:19:03;13.30;79.00
32296;DHT22;18781;51.550;5.418;2022-12-26T00:21:30;13.30;79.10
32296;DHT22;18781;51.550;5.418;2022-12-26T00:23:56;13.30;79.10
32296;DHT22;18781;51.550;5.418;2022-12-26T00:26:25;13.20;79.10
32296;DHT22;18781;51.550;5.418;2022-12-26T00:28:53;13.20;79.10
32296;DHT22;18781;51.550;5.418;2022-12-26T00:31:21;13.30;79.20
32296;DHT22;18781;51.550;5.418;2022-12-26T00:33:47;13.20;79.10
32296;DHT22;18781;51.550;5.418;2022-12-26T00:36:18;13.30;79.10
32296;DHT22;18781;51.550;5.418;2022-12-26T00:38:45;13.20;79.10
32296;DHT22;18781;51.550;5.418;2022-12-26T00:41:12;13.30;79.20
32296;DHT22;18781;51.550;5.418;2022-12-26T00:43:38;13.30;79.20
32296;DHT22;18781;51.550;5.418;2022-12-26T00:46:04;13.20;79.10
32296;DHT22;18781;51.550;5.418;2022-12-26T00:48:30;13.20;79.10
32296;DHT22;18781;51.550;5.418;2022-12-26T00:50:56;13.30;79.30
32296;DHT22;18781;51.550;5.418;2022-12-26T00:53:24;13.20;79.30
32296;DHT22;18781;51.550;5.418;2022-12-26T00:55:50;13.20;79.20
32296;DHT22;18781;51.550;5.418;2022-12-26T00:58:17;13.30;79.20
32296;DHT22;18781;51.550;5.418;2022-12-26T01:00:43;13.30;79.20
32296;DHT22;18781;51.550;5.418;2022-12-26T01:03:09;13.30;79.20
32296;DHT22;18781;51.550;5.418;2022-12-26T01:05:40;13.30;79.10
32296;DHT22;18781;51.550;5.418;2022-12-26T01:08:05;13.20;79.10
32296;DHT22;18781;51.550;5.418;2022-12-26T01:10:31;13.30;79.10
32296;DHT22;18781;51.550;5.418;2022-12-26T01:12:56;13.30;79.10
32296;DHT22;18781;51.550;5.418;2022-12-26T01:15:22;13.20;78.90
32296;DHT22;18781;51.550;5.418;2022-12-26T01:17:48;13.20;79.00
32296;DHT22;18781;51.550;5.418;2022-12-26T01:20:13;13.20;79.00
32296;DHT22;18781;51.550;5.418;2022-12-26T01:22:39;13.20;79.00
32296;DHT22;18781;51.550;5.418;2022-12-26T01:25:05;13.20;78.90
32296;DHT22;18781;51.550;5.418;2022-12-26T01:27:31;13.20;78.90
32296;DHT22;18781;51.550;5.418;2022-12-26T01:29:56;13.20;78.90
32296;DHT22;18781;51.550;5.418;2022-12-26T01:32:22;13.20;78.90
32296;DHT22;18781;51.550;5.418;2022-12-26T01:34:47;13.20;79.00
32296;DHT22;18781;51.550;5.418;2022-12-26T01:37:14;13.20;78.90
32296;DHT22;18781;51.550;5.418;2022-12-26T01:39:40;13.20;79.00
32296;DHT22;18781;51.550;5.418;2022-12-26T01:42:17;13.20;78.90
32296;DHT22;18781;51.550;5.418;2022-12-26T01:50:01;13.20;78.80
32296;DHT22;18781;51.550;5.418;2022-12-26T01:52:36;13.10;78.70
32296;DHT22;18781;51.550;5.418;2022-12-26T01:55:05;13.10;78.80
32296;DHT22;18781;51.550;5.418;2022-12-26T01:57:43;13.10;78.70
32296;DHT22;18781;51.550;5.418;2022-12-26T02:00:10;13.10;78.80
32296;DHT22;18781;51.550;5.418;2022-12-26T02:02:36;13.10;78.80
32296;DHT22;18781;51.550;5.418;2022-12-26T02:05:24;13.10;78.80
32296;DHT22;18781;51.550;5.418;2022-12-26T02:08:20;13.10;78.80
32296;DHT22;18781;51.550;5.418;2022-12-26T02:13:35;13.00;78.90
32296;DHT22;18781;51.550;5.418;2022-12-26T02:16:05;13.10;78.70
32296;DHT22;18781;51.550;5.418;2022-12-26T02:18:31;13.00;78.70
32296;DHT22;18781;51.550;5.418;2022-12-26T02:38:39;13.00;78.90
32296;DHT22;18781;51.550;5.418;2022-12-26T02:41:45;13.00;78.80
32296;DHT22;18781;51.550;5.418;2022-12-26T02:44:37;13.00;78.90
32296;DHT22;18781;51.550;5.418;2022-12-26T02:47:46;13.00;78.80
32296;DHT22;18781;51.550;5.418;2022-12-26T02:50:30;13.00;78.90
32296;DHT22;18781;51.550;5.418;2022-12-26T02:56:23;12.90;78.80
32296;DHT22;18781;51.550;5.418;2022-12-26T03:02:03;12.90;78.90
32296;DHT22;18781;51.550;5.418;2022-12-26T03:04:49;12.90;78.90
32296;DHT22;18781;51.550;5.418;2022-12-26T03:07:37;12.90;78.90
32296;DHT22;18781;51.550;5.418;2022-12-26T03:10:29;12.90;78.90
32296;DHT22;18781;51.550;5.418;2022-12-26T03:13:28;12.90;78.90
32296;DHT22;18781;51.550;5.418;2022-12-26T03:15:59;12.90;78.90
32296;DHT22;18781;51.550;5.418;2022-12-26T03:18:47;12.90;78.80
32296;DHT22;18781;51.550;5.418;2022-12-26T03:21:14;12.90;78.70
32296;DHT22;18781;51.550;5.418;2022-12-26T03:23:42;12.90;78.70
32296;DHT22;18781;51.550;5.418;2022-12-26T03:26:14;12.90;78.70
32296;DHT22;18781;51.550;5.418;2022-12-26T03:29:00;12.90;78.80
32296;DHT22;18781;51.550;5.418;2022-12-26T03:31:45;12.80;78.70
32296;DHT22;18781;51.550;5.418;2022-12-26T03:34:10;12.80;78.70
32296;DHT22;18781;51.550;5.418;2022-12-26T03:45:14;12.80;78.70
32296;DHT22;18781;51.550;5.418;2022-12-26T03:48:19;12.80;78.80
32296;DHT22;18781;51.550;5.418;2022-12-26T03:51:10;12.80;78.80
32296;DHT22;18781;51.550;5.418;2022-12-26T03:54:06;12.80;78.70
32296;DHT22;18781;51.550;5.418;2022-12-26T03:56:57;12.70;78.70
32296;DHT22;18781;51.550;5.418;2022-12-26T04:02:35;12.70;78.60
32296;DHT22;18781;51.550;5.418;2022-12-26T04:05:21;12.70;78.60
32296;DHT22;18781;51.550;5.418;2022-12-26T04:08:18;12.70;78.60
32296;DHT22;18781;51.550;5.418;2022-12-26T04:11:05;12.70;78.60
32296;DHT22;18781;51.550;5.418;2022-12-26T04:17:26;12.70;78.70
32296;DHT22;18781;51.550;5.418;2022-12-26T04:22:49;12.60;78.40
32296;DHT22;18781;51.550;5.418;2022-12-26T04:25:43;12.60;78.60
32296;DHT22;18781;51.550;5.418;2022-12-26T04:28:29;12.60;78.60
32296;DHT22;18781;51.550;5.418;2022-12-26T04:31:28;12.60;78.60
32296;DHT22;18781;51.550;5.418;2022-12-26T04:34:27;12.60;78.50
32296;DHT22;18781;51.550;5.418;2022-12-26T04:37:18;12.60;78.50
32296;DHT22;18781;51.550;5.418;2022-12-26T04:40:07;12.60;78.50
32296;DHT22;18781;51.550;5.418;2022-12-26T04:42:54;12.60;78.40
32296;DHT22;18781;51.550;5.418;2022-12-26T04:45:40;12.60;78.50
32296;DHT22;18781;51.550;5.418;2022-12-26T04:48:06;12.60;78.40
32296;DHT22;18781;51.550;5.418;2022-12-26T04:50:51;12.60;78.40
32296;DHT22;18781;51.550;5.418;2022-12-26T04:53:17;12.50;78.40
32296;DHT22;18781;51.550;5.418;2022-12-26T04:55:43;12.50;78.40
32296;DHT22;18781;51.550;5.418;2022-12-26T04:58:09;12.50;78.40
32296;DHT22;18781;51.550;5.418;2022-12-26T05:00:35;12.50;78.40
32296;DHT22;18781;51.550;5.418;2022-12-26T05:03:00;12.50;78.40
32296;DHT22;18781;51.550;5.418;2022-12-26T05:05:48;12.50;78.40
32296;DHT22;18781;51.550;5.418;2022-12-26T05:08:38;12.50;78.40
32296;DHT22;18781;51.550;5.418;2022-12-26T05:11:23;12.50;78.30
32296;DHT22;18781;51.550;5.418;2022-12-26T05:13:53;12.50;78.30
32296;DHT22;18781;51.550;5.418;2022-12-26T05:16:20;12.50;78.30
32296;DHT22;18781;51.550;5.418;2022-12-26T05:19:04;12.50;78.30
32296;DHT22;18781;51.550;5.418;2022-12-26T05:21:49;12.50;78.30
32296;DHT22;18781;51.550;5.418;2022-12-26T05:24:37;12.40;78.20
32296;DHT22;18781;51.550;5.418;2022-12-26T05:27:23;12.40;78.30
32296;DHT22;18781;51.550;5.418;2022-12-26T05:30:07;12.40;78.20
32296;DHT22;18781;51.550;5.418;2022-12-26T05:32:33;12.40;78.20
32296;DHT22;18781;51.550;5.418;2022-12-26T05:35:18;12.40;78.20
32296;DHT22;18781;51.550;5.418;2022-12-26T05:37:44;12.40;78.20
32296;DHT22;18781;51.550;5.418;2022-12-26T05:40:10;12.40;78.30
32296;DHT22;18781;51.550;5.418;2022-12-26T05:42:35;12.40;78.30
32296;DHT22;18781;51.550;5.418;2022-12-26T05:45:01;12.40;78.30
32296;DHT22;18781;51.550;5.418;2022-12-26T05:47:27;12.40;78.40
32296;DHT22;18781;51.550;5.418;2022-12-26T05:49:52;12.40;78.30
32296;DHT22;18781;51.550;5.418;2022-12-26T05:52:18;12.40;78.30
32296;DHT22;18781;51.550;5.418;2022-12-26T05:54:43;12.30;78.20
32296;DHT22;18781;51.550;5.418;2022-12-26T05:57:09;12.40;78.30
32296;DHT22;18781;51.550;5.418;2022-12-26T05:59:34;12.30;78.20
32296;DHT22;18781;51.550;5.418;2022-12-26T06:02:00;12.30;78.20
32296;DHT22;18781;51.550;5.418;2022-12-26T06:04:26;12.40;78.20
32296;DHT22;18781;51.550;5.418;2022-12-26T06:06:52;12.30;78.20
32296;DHT22;18781;51.550;5.418;2022-12-26T06:09:23;12.30;78.20
32296;DHT22;18781;51.550;5.418;2022-12-26T06:11:49;12.30;78.30
32296;DHT22;18781;51.550;5.418;2022-12-26T06:14:15;12.30;78.40
32296;DHT22;18781;51.550;5.418;2022-12-26T06:16:41;12.30;78.40
32296;DHT22;18781;51.550;5.418;2022-12-26T06:19:07;12.30;78.50
32296;DHT22;18781;51.550;5.418;2022-12-26T06:21:32;12.30;78.50
32296;DHT22;18781;51.550;5.418;2022-12-26T06:23:58;12.30;78.50
32296;DHT22;18781;51.550;5.418;2022-12-26T06:26:23;12.30;78.50
32296;DHT22;18781;51.550;5.418;2022-12-26T06:28:49;12.30;78.40
32296;DHT22;18781;51.550;5.418;2022-12-26T06:31:21;12.30;78.40
32296;DHT22;18781;51.550;5.418;2022-12-26T06:33:55;12.30;78.30
32296;DHT22;18781;51.550;5.418;2022-12-26T06:36:24;12.30;78.40
32296;DHT22;18781;51.550;5.418;2022-12-26T06:38:50;12.40;78.30
32296;DHT22;18781;51.550;5.418;2022-12-26T06:41:18;12.30;78.30
32296;DHT22;18781;51.550;5.418;2022-12-26T06:43:44;12.40;78.20
32296;DHT22;18781;51.550;5.418;2022-12-26T06:46:13;12.30;78.20
32296;DHT22;18781;51.550;5.418;2022-12-26T06:48:39;12.30;78.20
32296;DHT22;18781;51.550;5.418;2022-12-26T06:51:08;12.30;78.20
32296;DHT22;18781;51.550;5.418;2022-12-26T06:53:34;12.30;78.20
32296;DHT22;18781;51.550;5.418;2022-12-26T06:56:11;12.30;78.10
32296;DHT22;18781;51.550;5.418;2022-12-26T06:58:37;12.30;78.10
32296;DHT22;18781;51.550;5.418;2022-12-26T07:01:15;12.30;78.00
32296;DHT22;18781;51.550;5.418;2022-12-26T07:03:41;12.30;78.00
32296;DHT22;18781;51.550;5.418;2022-12-26T07:06:11;12.30;77.90
32296;DHT22;18781;51.550;5.418;2022-12-26T07:08:38;12.30;78.00
32296;DHT22;18781;51.550;5.418;2022-12-26T07:11:03;12.30;77.90
32296;DHT22;18781;51.550;5.418;2022-12-26T07:13:29;12.20;77.80
32296;DHT22;18781;51.550;5.418;2022-12-26T07:15:58;12.20;77.80
32296;DHT22;18781;51.550;5.418;2022-12-26T07:18:24;12.20;77.70
32296;DHT22;18781;51.550;5.418;2022-12-26T07:20:49;12.20;77.80
32296;DHT22;18781;51.550;5.418;2022-12-26T07:23:15;12.20;77.70
32296;DHT22;18781;51.550;5.418;2022-12-26T07:25:40;12.20;77.70
32296;DHT22;18781;51.550;5.418;2022-12-26T07:28:06;12.20;77.70
32296;DHT22;18781;51.550;5.418;2022-12-26T07:30:31;12.20;77.60
32296;DHT22;18781;51.550;5.418;2022-12-26T07:32:57;12.20;77.70
32296;DHT22;18781;51.550;5.418;2022-12-26T07:35:22;12.20;77.70
32296;DHT22;18781;51.550;5.418;2022-12-26T07:37:48;12.20;77.60
32296;DHT22;18781;51.550;5.418;2022-12-26T07:40:14;12.20;77.60
32296;DHT22;18781;51.550;5.418;2022-12-26T07:42:39;12.20;77.60
32296;DHT22;18781;51.550;5.418;2022-12-26T07:45:05;12.20;77.70
32296;DHT22;18781;51.550;5.418;2022-12-26T07:47:31;12.20;77.60
32296;DHT22;18781;51.550;5.418;2022-12-26T07:49:56;12.20;77.60
32296;DHT22;18781;51.550;5.418;2022-12-26T07:52:22;12.20;77.60
32296;DHT22;18781;51.550;5.418;2022-12-26T07:54:47;12.10;77.60
32296;DHT22;18781;51.550;5.418;2022-12-26T07:57:13;12.10;77.60
32296;DHT22;18781;51.550;5.418;2022-12-26T07:59:38;12.10;77.60
32296;DHT22;18781;51.550;5.418;2022-12-26T08:02:04;12.10;77.60
32296;DHT22;18781;51.550;5.418;2022-12-26T08:04:31;12.10;77.60
32296;DHT22;18781;51.550;5.418;2022-12-26T08:06:57;12.10;77.70
32296;DHT22;18781;51.550;5.418;2022-12-26T08:09:23;12.10;77.60
32296;DHT22;18781;51.550;5.418;2022-12-26T08:11:48;12.10;77.60
32296;DHT22;18781;51.550;5.418;2022-12-26T08:14:14;12.10;77.60
32296;DHT22;18781;51.550;5.418;2022-12-26T08:16:42;12.10;77.60
32296;DHT22;18781;51.550;5.418;2022-12-26T08:19:08;12.10;77.60
32296;DHT22;18781;51.550;5.418;2022-12-26T08:21:34;12.10;77.60
32296;DHT22;18781;51.550;5.418;2022-12-26T08:23:59;12.20;77.70
32296;DHT22;18781;51.550;5.418;2022-12-26T08:26:25;12.20;77.70
32296;DHT22;18781;51.550;5.418;2022-12-26T08:28:51;12.10;77.70
32296;DHT22;18781;51.550;5.418;2022-12-26T08:31:18;12.10;77.80
32296;DHT22;18781;51.550;5.418;2022-12-26T08:33:44;12.10;77.80
32296;DHT22;18781;51.550;5.418;2022-12-26T08:36:11;12.20;77.90
32296;DHT22;18781;51.550;5.418;2022-12-26T08:38:38;12.20;77.90
32296;DHT22;18781;51.550;5.418;2022-12-26T08:41:04;12.20;77.90
32296;DHT22;18781;51.550;5.418;2022-12-26T08:43:30;12.20;78.00
32296;DHT22;18781;51.550;5.418;2022-12-26T08:46:06;12.30;78.10
32296;DHT22;18781;51.550;5.418;2022-12-26T08:48:33;12.30;78.00
32296;DHT22;18781;51.550;5.418;2022-12-26T08:51:01;12.30;78.00
32296;DHT22;18781;51.550;5.418;2022-12-26T08:53:28;12.30;77.90
32296;DHT22;18781;51.550;5.418;2022-12-26T08:55:55;12.40;78.00
32296;DHT22;18781;51.550;5.418;2022-12-26T08:58:21;12.40;77.90
32296;DHT22;18781;51.550;5.418;2022-12-26T09:00:47;12.40;77.90
32296;DHT22;18781;51.550;5.418;2022-12-26T09:03:13;12.50;77.90
32296;DHT22;18781;51.550;5.418;2022-12-26T09:05:39;12.50;77.80
32296;DHT22;18781;51.550;5.418;2022-12-26T09:08:04;12.50;77.70
32296;DHT22;18781;51.550;5.418;2022-12-26T09:10:30;12.60;77.70
32296;DHT22;18781;51.550;5.418;2022-12-26T09:12:56;12.60;77.70
32296;DHT22;18781;51.550;5.418;2022-12-26T09:15:21;12.60;77.60
32296;DHT22;18781;51.550;5.418;2022-12-26T09:17:47;12.60;77.60
32296;DHT22;18781;51.550;5.418;2022-12-26T09:20:13;12.70;78.20
32296;DHT22;18781;51.550;5.418;2022-12-26T09:22:38;12.70;77.60
32296;DHT22;18781;51.550;5.418;2022-12-26T09:25:17;12.70;77.50
32296;DHT22;18781;51.550;5.418;2022-12-26T09:27:43;12.70;77.40
32296;DHT22;18781;51.550;5.418;2022-12-26T09:30:09;12.80;77.30
32296;DHT22;18781;51.550;5.418;2022-12-26T09:32:36;12.80;77.20
32296;DHT22;18781;51.550;5.418;2022-12-26T09:35:02;12.80;77.10
32296;DHT22;18781;51.550;5.418;2022-12-26T09:37:28;12.90;77.10
32296;DHT22;18781;51.550;5.418;2022-12-26T09:39:53;12.90;77.10
32296;DHT22;18781;51.550;5.418;2022-12-26T09:42:43;12.90;77.00
32296;DHT22;18781;51.550;5.418;2022-12-26T09:45:18;12.90;76.80
32296;DHT22;18781;51.550;5.418;2022-12-26T09:48:13;12.90;76.80
32296;DHT22;18781;51.550;5.418;2022-12-26T09:50:40;13.00;76.70
32296;DHT22;18781;51.550;5.418;2022-12-26T09:53:11;13.00;76.60
32296;DHT22;18781;51.550;5.418;2022-12-26T09:55:48;13.00;76.50
32296;DHT22;18781;51.550;5.418;2022-12-26T10:03:41;13.10;76.20
32296;DHT22;18781;51.550;5.418;2022-12-26T10:06:40;13.10;76.20
32296;DHT22;18781;51.550;5.418;2022-12-26T10:17:33;13.10;76.20
32296;DHT22;18781;51.550;5.418;2022-12-26T10:23:11;13.10;76.00
32296;DHT22;18781;51.550;5.418;2022-12-26T10:25:47;13.20;76.10
32296;DHT22;18781;51.550;5.418;2022-12-26T10:28:20;13.20;76.10
32296;DHT22;18781;51.550;5.418;2022-12-26T10:30:49;13.20;76.10
32296;DHT22;18781;51.550;5.418;2022-12-26T10:33:23;13.20;76.00
32296;DHT22;18781;51.550;5.418;2022-12-26T10:35:52;13.20;76.10
32296;DHT22;18781;51.550;5.418;2022-12-26T10:38:28;13.20;76.10
32296;DHT22;18781;51.550;5.418;2022-12-26T10:40:58;13.20;76.10
32296;DHT22;18781;51.550;5.418;2022-12-26T10:43:34;13.20;74.90
32296;DHT22;18781;51.550;5.418;2022-12-26T10:46:22;13.10;73.80
32296;DHT22;18781;51.550;5.418;2022-12-26T10:48:53;13.10;73.20
32296;DHT22;18781;51.550;5.418;2022-12-26T10:51:18;13.00;73.30
32296;DHT22;18781;51.550;5.418;2022-12-26T10:53:50;12.90;73.50
32296;DHT22;18781;51.550;5.418;2022-12-26T10:56:17;12.90;73.70
32296;DHT22;18781;51.550;5.418;2022-12-26T10:58:44;12.80;73.80
32296;DHT22;18781;51.550;5.418;2022-12-26T11:01:29;12.80;74.00
32296;DHT22;18781;51.550;5.418;2022-12-26T11:03:58;12.70;74.30
32296;DHT22;18781;51.550;5.418;2022-12-26T11:06:27;12.70;74.50
32296;DHT22;18781;51.550;5.418;2022-12-26T11:08:55;12.60;74.60
32296;DHT22;18781;51.550;5.418;2022-12-26T11:11:27;12.60;74.70
32296;DHT22;18781;51.550;5.418;2022-12-26T11:14:36;12.60;74.50
32296;DHT22;18781;51.550;5.418;2022-12-26T11:17:08;12.60;73.30
32296;DHT22;18781;51.550;5.418;2022-12-26T11:19:41;12.60;73.00
32296;DHT22;18781;51.550;5.418;2022-12-26T11:22:27;12.50;73.50
32296;DHT22;18781;51.550;5.418;2022-12-26T11:27:38;12.40;73.30
32296;DHT22;18781;51.550;5.418;2022-12-26T11:30:15;12.40;73.80
32296;DHT22;18781;51.550;5.418;2022-12-26T11:32:42;12.30;73.90
32296;DHT22;18781;51.550;5.418;2022-12-26T11:35:18;12.30;73.70
32296;DHT22;18781;51.550;5.418;2022-12-26T11:37:45;12.30;73.80
32296;DHT22;18781;51.550;5.418;2022-12-26T11:40:20;12.30;74.10
32296;DHT22;18781;51.550;5.418;2022-12-26T11:42:56;12.20;73.70
32296;DHT22;18781;51.550;5.418;2022-12-26T11:45:25;12.20;73.10
32296;DHT22;18781;51.550;5.418;2022-12-26T11:47:56;12.20;73.40
32296;DHT22;18781;51.550;5.418;2022-12-26T11:50:27;12.20;73.20
32296;DHT22;18781;51.550;5.418;2022-12-26T12:03:40;12.10;72.30
32296;DHT22;18781;51.550;5.418;2022-12-26T12:09:01;12.10;72.10
32296;DHT22;18781;51.550;5.418;2022-12-26T12:14:23;12.00;71.00
32296;DHT22;18781;51.550;5.418;2022-12-26T12:22:57;11.90;72.10
32296;DHT22;18781;51.550;5.418;2022-12-26T12:28:32;11.90;71.50
32296;DHT22;18781;51.550;5.418;2022-12-26T12:39:38;11.80;70.10
32296;DHT22;18781;51.550;5.418;2022-12-26T12:47:36;11.70;70.20
32296;DHT22;18781;51.550;5.418;2022-12-26T12:58:55;11.60;70.50
32296;DHT22;18781;51.550;5.418;2022-12-26T13:01:33;11.60;70.30
32296;DHT22;18781;51.550;5.418;2022-12-26T13:04:05;11.60;69.90
32296;DHT22;18781;51.550;5.418;2022-12-26T13:06:46;11.60;70.10
32296;DHT22;18781;51.550;5.418;2022-12-26T13:09:20;11.60;69.40
32296;DHT22;18781;51.550;5.418;2022-12-26T13:14:28;11.50;68.30
32296;DHT22;18781;51.550;5.418;2022-12-26T13:17:04;11.50;68.60
32296;DHT22;18781;51.550;5.418;2022-12-26T13:19:55;11.40;68.70
32296;DHT22;18781;51.550;5.418;2022-12-26T13:22:30;11.40;68.60
32296;DHT22;18781;51.550;5.418;2022-12-26T13:25:18;11.40;68.00
32296;DHT22;18781;51.550;5.418;2022-12-26T13:27:44;11.30;68.60
32296;DHT22;18781;51.550;5.418;2022-12-26T13:30:15;11.30;68.80
32296;DHT22;18781;51.550;5.418;2022-12-26T13:32:42;11.30;68.30
32296;DHT22;18781;51.550;5.418;2022-12-26T13:35:54;11.30;68.60
32296;DHT22;18781;51.550;5.418;2022-12-26T13:38:21;11.20;68.90
32296;DHT22;18781;51.550;5.418;2022-12-26T13:40:59;11.20;69.30
32296;DHT22;18781;51.550;5.418;2022-12-26T13:49:35;11.20;68.60
32296;DHT22;18781;51.550;5.418;2022-12-26T13:57:38;11.10;68.40
32296;DHT22;18781;51.550;5.418;2022-12-26T14:00:21;11.10;68.30
32296;DHT22;18781;51.550;5.418;2022-12-26T14:20:24;11.10;67.60
32296;DHT22;18781;51.550;5.418;2022-12-26T14:25:49;11.10;68.50
32296;DHT22;18781;51.550;5.418;2022-12-26T14:31:08;11.10;69.00
32296;DHT22;18781;51.550;5.418;2022-12-26T14:44:53;10.90;66.60
32296;DHT22;18781;51.550;5.418;2022-12-26T14:47:47;10.90;67.20
32296;DHT22;18781;51.550;5.418;2022-12-26T14:58:43;10.80;66.00
32296;DHT22;18781;51.550;5.418;2022-12-26T15:06:50;10.60;65.60
32296;DHT22;18781;51.550;5.418;2022-12-26T15:12:38;10.60;66.00
32296;DHT22;18781;51.550;5.418;2022-12-26T15:18:04;10.40;65.40
32296;DHT22;18781;51.550;5.418;2022-12-26T15:20:56;10.40;66.10
32296;DHT22;18781;51.550;5.418;2022-12-26T15:32:08;10.20;65.90
32296;DHT22;18781;51.550;5.418;2022-12-26T15:37:47;10.20;65.80
32296;DHT22;18781;51.550;5.418;2022-12-26T15:40:21;10.10;66.00
32296;DHT22;18781;51.550;5.418;2022-12-26T15:43:23;10.10;66.10
32296;DHT22;18781;51.550;5.418;2022-12-26T16:00:04;9.90;66.10
32296;DHT22;18781;51.550;5.418;2022-12-26T16:08:46;9.80;66.20
32296;DHT22;18781;51.550;5.418;2022-12-26T16:14:02;9.70;66.30
32296;DHT22;18781;51.550;5.418;2022-12-26T16:16:36;9.60;66.00
32296;DHT22;18781;51.550;5.418;2022-12-26T16:21:48;9.60;66.30
32296;DHT22;18781;51.550;5.418;2022-12-26T16:24:34;9.60;66.80
32296;DHT22;18781;51.550;5.418;2022-12-26T16:27:04;9.50;66.80
32296;DHT22;18781;51.550;5.418;2022-12-26T16:29:30;9.50;66.80
32296;DHT22;18781;51.550;5.418;2022-12-26T16:32:02;9.50;66.90
32296;DHT22;18781;51.550;5.418;2022-12-26T16:34:29;9.50;66.60
32296;DHT22;18781;51.550;5.418;2022-12-26T16:36:56;9.50;66.80
32296;DHT22;18781;51.550;5.418;2022-12-26T16:39:22;9.40;66.80
32296;DHT22;18781;51.550;5.418;2022-12-26T16:42:04;9.40;66.80
32296;DHT22;18781;51.550;5.418;2022-12-26T16:44:40;9.40;66.40
32296;DHT22;18781;51.550;5.418;2022-12-26T16:47:12;9.40;66.40
32296;DHT22;18781;51.550;5.418;2022-12-26T16:49:39;9.30;66.40
32296;DHT22;18781;51.550;5.418;2022-12-26T16:52:36;9.30;66.60
32296;DHT22;18781;51.550;5.418;2022-12-26T16:57:57;9.20;66.20
32296;DHT22;18781;51.550;5.418;2022-12-26T17:00:23;9.20;66.70
32296;DHT22;18781;51.550;5.418;2022-12-26T17:02:53;9.20;66.70
32296;DHT22;18781;51.550;5.418;2022-12-26T17:05:26;9.10;66.60
32296;DHT22;18781;51.550;5.418;2022-12-26T17:07:53;9.10;66.60
32296;DHT22;18781;51.550;5.418;2022-12-26T17:10:26;9.00;66.70
32296;DHT22;18781;51.550;5.418;2022-12-26T17:12:53;9.00;66.60
32296;DHT22;18781;51.550;5.418;2022-12-26T17:15:24;8.90;66.80
32296;DHT22;18781;51.550;5.418;2022-12-26T17:17:50;8.90;66.90
32296;DHT22;18781;51.550;5.418;2022-12-26T17:22:48;8.80;66.80
32296;DHT22;18781;51.550;5.418;2022-12-26T17:27:47;8.80;67.00
32296;DHT22;18781;51.550;5.418;2022-12-26T17:30:30;8.70;67.10
32296;DHT22;18781;51.550;5.418;2022-12-26T17:33:07;8.70;66.90
32296;DHT22;18781;51.550;5.418;2022-12-26T17:35:35;8.70;67.10
32296;DHT22;18781;51.550;5.418;2022-12-26T17:38:03;8.60;67.20
32296;DHT22;18781;51.550;5.418;2022-12-26T17:40:36;8.60;67.80
32296;DHT22;18781;51.550;5.418;2022-12-26T17:43:21;8.60;67.40
32296;DHT22;18781;51.550;5.418;2022-12-26T17:45:47;8.50;67.10
32296;DHT22;18781;51.550;5.418;2022-12-26T17:48:13;8.50;67.20
32296;DHT22;18781;51.550;5.418;2022-12-26T17:50:41;8.50;67.30
32296;DHT22;18781;51.550;5.418;2022-12-26T17:55:48;8.40;67.20
32296;DHT22;18781;51.550;5.418;2022-12-26T17:58:14;8.40;67.40
32296;DHT22;18781;51.550;5.418;2022-12-26T18:00:41;8.30;67.40
32296;DHT22;18781;51.550;5.418;2022-12-26T18:03:07;8.30;67.40
32296;DHT22;18781;51.550;5.418;2022-12-26T18:05:34;8.30;67.30
32296;DHT22;18781;51.550;5.418;2022-12-26T18:08:00;8.30;67.30
32296;DHT22;18781;51.550;5.418;2022-12-26T18:10:29;8.20;67.40
32296;DHT22;18781;51.550;5.418;2022-12-26T18:12:55;8.20;67.40
32296;DHT22;18781;51.550;5.418;2022-12-26T18:15:21;8.20;67.40
32296;DHT22;18781;51.550;5.418;2022-12-26T18:17:48;8.10;67.40
32296;DHT22;18781;51.550;5.418;2022-12-26T18:20:16;8.10;67.50
32296;DHT22;18781;51.550;5.418;2022-12-26T18:22:45;8.10;67.60
32296;DHT22;18781;51.550;5.418;2022-12-26T18:25:13;8.10;67.50
32296;DHT22;18781;51.550;5.418;2022-12-26T18:27:39;8.00;67.40
32296;DHT22;18781;51.550;5.418;2022-12-26T18:30:05;8.00;67.50
32296;DHT22;18781;51.550;5.418;2022-12-26T18:32:32;8.00;67.50
32296;DHT22;18781;51.550;5.418;2022-12-26T18:34:59;8.00;67.40
32296;DHT22;18781;51.550;5.418;2022-12-26T18:37:27;7.90;67.50
32296;DHT22;18781;51.550;5.418;2022-12-26T18:39:56;7.90;67.50
32296;DHT22;18781;51.550;5.418;2022-12-26T18:42:21;7.90;67.50
32296;DHT22;18781;51.550;5.418;2022-12-26T18:44:47;7.80;67.60
32296;DHT22;18781;51.550;5.418;2022-12-26T18:47:18;7.80;67.50
32296;DHT22;18781;51.550;5.418;2022-12-26T18:49:44;7.80;67.60
32296;DHT22;18781;51.550;5.418;2022-12-26T18:52:11;7.80;67.70
32296;DHT22;18781;51.550;5.418;2022-12-26T18:54:37;7.70;67.60
32296;DHT22;18781;51.550;5.418;2022-12-26T18:57:04;7.70;67.60
32296;DHT22;18781;51.550;5.418;2022-12-26T18:59:29;7.70;67.50
32296;DHT22;18781;51.550;5.418;2022-12-26T19:01:55;7.70;67.60
32296;DHT22;18781;51.550;5.418;2022-12-26T19:04:21;7.70;67.70
32296;DHT22;18781;51.550;5.418;2022-12-26T19:06:46;7.60;67.60
32296;DHT22;18781;51.550;5.418;2022-12-26T19:09:13;7.60;67.70
32296;DHT22;18781;51.550;5.418;2022-12-26T19:11:39;7.60;67.60
32296;DHT22;18781;51.550;5.418;2022-12-26T19:14:06;7.60;67.70
32296;DHT22;18781;51.550;5.418;2022-12-26T19:16:41;7.60;67.80
32296;DHT22;18781;51.550;5.418;2022-12-26T19:19:06;7.60;67.60
32296;DHT22;18781;51.550;5.418;2022-12-26T19:21:32;7.60;67.70
32296;DHT22;18781;51.550;5.418;2022-12-26T19:23:57;7.50;67.70
32296;DHT22;18781;51.550;5.418;2022-12-26T19:26:23;7.50;67.60
32296;DHT22;18781;51.550;5.418;2022-12-26T19:28:53;7.50;67.60
32296;DHT22;18781;51.550;5.418;2022-12-26T19:31:20;7.50;67.60
32296;DHT22;18781;51.550;5.418;2022-12-26T19:33:46;7.50;67.70
32296;DHT22;18781;51.550;5.418;2022-12-26T19:36:12;7.50;67.70
32296;DHT22;18781;51.550;5.418;2022-12-26T19:38:38;7.50;67.70
32296;DHT22;18781;51.550;5.418;2022-12-26T19:41:13;7.50;67.90
32296;DHT22;18781;51.550;5.418;2022-12-26T19:43:39;7.50;68.00
32296;DHT22;18781;51.550;5.418;2022-12-26T19:46:07;7.40;67.90
32296;DHT22;18781;51.550;5.418;2022-12-26T19:48:34;7.40;67.90
32296;DHT22;18781;51.550;5.418;2022-12-26T19:51:05;7.50;68.00
32296;DHT22;18781;51.550;5.418;2022-12-26T19:53:32;7.40;67.90
32296;DHT22;18781;51.550;5.418;2022-12-26T19:55:58;7.40;68.50
32296;DHT22;18781;51.550;5.418;2022-12-26T19:58:24;7.50;67.80